createdAt,value
2022-10-05T00:01:31.063Z,87.60
2022-10-05T00:04:11.744Z,87.64
2022-10-05T00:06:40.244Z,87.56
2022-10-05T00:09:15.224Z,87.54
2022-10-05T00:11:44.835Z,87.48
2022-10-05T00:14:18.343Z,87.48
2022-10-05T00:16:48.043Z,87.50
2022-10-05T00:19:21.409Z,87.35
2022-10-05T00:21:50.332Z,87.31
2022-10-05T00:24:20.414Z,87.20
2022-10-05T00:26:52.838Z,87.09
2022-10-05T00:29:26.184Z,87.14
2022-10-05T00:31:56.394Z,87.03
2022-10-05T00:34:27.210Z,86.98
2022-10-05T00:36:58.663Z,87.03
2022-10-05T00:39:29.580Z,86.91
2022-10-05T00:42:21.736Z,86.78
2022-10-05T00:44:57.554Z,86.90
2022-10-05T00:47:37.105Z,86.88
2022-10-05T00:50:31.723Z,86.99
2022-10-05T00:53:11.519Z,87.17
2022-10-05T00:55:55.358Z,87.40
2022-10-05T00:58:38.154Z,87.30
2022-10-05T01:01:11.259Z,87.47
2022-10-05T01:03:54.239Z,87.54
2022-10-05T01:06:31.424Z,87.65
2022-10-05T01:09:09.344Z,87.69
2022-10-05T01:11:46.224Z,87.65
2022-10-05T01:14:21.199Z,87.57
2022-10-05T01:16:55.936Z,87.57
2022-10-05T01:19:50.846Z,87.59
2022-10-05T01:22:36.297Z,87.55
2022-10-05T01:25:21.077Z,87.59
2022-10-05T01:27:59.133Z,87.62
2022-10-05T01:30:36.819Z,87.61
2022-10-05T01:33:16.607Z,87.61
2022-10-05T01:35:57.691Z,87.60
2022-10-05T01:38:35.911Z,87.62
2022-10-05T01:41:20.104Z,87.64
2022-10-05T01:43:54.576Z,87.65
2022-10-05T01:46:31.145Z,87.75
2022-10-05T01:49:15.679Z,87.72
2022-10-05T01:51:48.473Z,87.63
2022-10-05T01:54:30.797Z,87.60
2022-10-05T01:57:10.333Z,87.58
2022-10-05T01:59:56.123Z,87.71
2022-10-05T02:02:29.009Z,87.70
2022-10-05T02:05:03.803Z,87.59
2022-10-05T02:07:37.545Z,87.51
2022-10-05T02:10:14.502Z,87.49
2022-10-05T02:12:45.521Z,87.54
2022-10-05T02:15:19.730Z,87.67
2022-10-05T02:17:51.042Z,87.71
2022-10-05T02:20:25.671Z,87.81
2022-10-05T02:22:57.711Z,87.77
2022-10-05T02:25:30.826Z,87.87
2022-10-05T02:28:05.986Z,88.00
2022-10-05T02:30:41.348Z,88.04
2022-10-05T02:33:18.797Z,88.06
2022-10-05T02:35:47.303Z,87.99
2022-10-05T02:38:28.213Z,88.02
2022-10-05T02:41:06.396Z,88.02
2022-10-05T02:43:46.140Z,87.89
2022-10-05T02:46:25.626Z,87.99
2022-10-05T02:49:11.104Z,88.07
2022-10-05T02:51:48.819Z,88.07
2022-10-05T02:54:28.575Z,88.09
2022-10-05T02:57:04.223Z,88.20
2022-10-05T02:59:38.572Z,88.35
2022-10-05T03:02:15.397Z,88.57
2022-10-05T03:04:52.032Z,88.52
2022-10-05T03:07:27.641Z,88.51
2022-10-05T03:10:05.248Z,88.45
2022-10-05T03:12:49.051Z,88.55
2022-10-05T03:15:35.459Z,88.65
2022-10-05T03:18:16.057Z,88.78
2022-10-05T03:20:54.603Z,88.87
2022-10-05T03:23:35.572Z,88.90
2022-10-05T03:26:19.083Z,88.96
2022-10-05T03:28:55.963Z,88.85
2022-10-05T03:31:35.147Z,88.82
2022-10-05T03:34:11.233Z,88.67
2022-10-05T03:36:49.268Z,88.83
2022-10-05T03:39:27.292Z,88.94
2022-10-05T03:42:07.692Z,89.09
2022-10-05T03:44:46.083Z,89.15
2022-10-05T03:47:24.971Z,89.46
2022-10-05T03:50:21.453Z,89.53
2022-10-05T03:52:56.132Z,89.56
2022-10-05T03:55:31.252Z,89.55
2022-10-05T03:58:07.454Z,89.42
2022-10-05T04:00:40.133Z,89.52
2022-10-05T04:03:15.834Z,89.54
2022-10-05T04:05:50.583Z,89.55
2022-10-05T04:08:25.889Z,89.59
2022-10-05T04:11:04.826Z,89.58
2022-10-05T04:13:39.970Z,89.69
2022-10-05T04:16:19.769Z,89.73
2022-10-05T04:18:56.817Z,89.72
2022-10-05T04:21:30.246Z,89.73
2022-10-05T04:24:04.469Z,89.77
2022-10-05T04:26:41.273Z,89.80
2022-10-05T04:29:19.259Z,89.79
2022-10-05T04:32:05.190Z,89.80
2022-10-05T04:35:02.556Z,89.73
2022-10-05T04:37:46.450Z,89.68
2022-10-05T04:40:34.006Z,89.61
2022-10-05T04:43:13.756Z,89.64
2022-10-05T04:45:58.136Z,89.68
2022-10-05T04:48:38.262Z,89.65
2022-10-05T04:51:20.634Z,89.63
2022-10-05T04:53:59.263Z,89.76
2022-10-05T04:56:35.251Z,89.72
2022-10-05T04:59:35.332Z,89.71
2022-10-05T05:02:13.532Z,89.76
2022-10-05T05:04:56.292Z,89.74
2022-10-05T05:07:37.873Z,89.74
2022-10-05T05:10:40.771Z,89.76
2022-10-05T05:13:23.685Z,89.75
2022-10-05T05:15:58.738Z,89.90
2022-10-05T05:18:46.194Z,89.84
2022-10-05T05:21:30.573Z,89.91
2022-10-05T05:24:09.728Z,89.96
2022-10-05T05:26:55.552Z,89.97
2022-10-05T05:29:38.517Z,89.92
2022-10-05T05:32:14.054Z,89.92
2022-10-05T05:35:00.193Z,89.85
2022-10-05T05:37:35.452Z,89.85
2022-10-05T05:40:19.963Z,89.72
2022-10-05T05:42:58.103Z,89.74
2022-10-05T05:45:40.436Z,89.57
2022-10-05T05:48:18.077Z,89.56
2022-10-05T05:50:56.165Z,89.47
2022-10-05T05:53:31.951Z,89.38
2022-10-05T05:56:09.446Z,89.31
2022-10-05T05:58:47.413Z,89.28
2022-10-05T06:01:33.359Z,89.19
2022-10-05T06:04:14.600Z,89.12
2022-10-05T06:06:48.794Z,89.02
2022-10-05T06:09:26.021Z,88.78
2022-10-05T06:12:15.807Z,88.65
2022-10-05T06:14:50.434Z,88.42
2022-10-05T06:17:24.806Z,88.29
2022-10-05T06:20:02.436Z,88.06
2022-10-05T06:22:41.687Z,87.95
2022-10-05T06:25:24.368Z,87.62
2022-10-05T06:28:09.832Z,87.35
2022-10-05T06:30:51.799Z,87.10
2022-10-05T06:33:37.743Z,86.88
2022-10-05T06:36:17.612Z,86.72
2022-10-05T06:39:16.950Z,86.40
2022-10-05T06:42:01.378Z,86.21
2022-10-05T06:45:00.023Z,85.82
2022-10-05T06:47:56.116Z,85.53
2022-10-05T06:50:42.609Z,85.41
2022-10-05T06:53:40.653Z,85.29
2022-10-05T06:56:17.358Z,84.96
2022-10-05T06:59:01.763Z,84.74
2022-10-05T07:01:41.240Z,84.92
2022-10-05T07:04:46.047Z,84.34
2022-10-05T07:07:23.339Z,84.12
2022-10-05T07:10:06.057Z,84.18
2022-10-05T07:12:49.756Z,83.72
2022-10-05T07:15:31.326Z,83.26
2022-10-05T07:18:14.398Z,82.93
2022-10-05T07:20:53.231Z,82.73
2022-10-05T07:23:41.748Z,82.31
2022-10-05T07:26:18.856Z,82.41
2022-10-05T07:28:54.424Z,81.90
2022-10-05T07:31:34.962Z,81.90
2022-10-05T07:34:09.291Z,81.88
2022-10-05T07:37:04.090Z,81.02
2022-10-05T07:39:58.514Z,79.97
2022-10-05T07:42:44.582Z,79.76
2022-10-05T07:45:25.301Z,78.28
2022-10-05T07:47:57.213Z,78.62
2022-10-05T07:50:34.298Z,78.57
2022-10-05T07:53:11.719Z,78.06
2022-10-05T07:55:47.338Z,78.44
2022-10-05T07:58:23.493Z,77.66
2022-10-05T08:01:04.207Z,77.32
2022-10-05T08:03:47.289Z,76.96
2022-10-05T08:06:32.259Z,76.64
2022-10-05T08:09:12.447Z,76.46
2022-10-05T08:11:51.955Z,76.42
2022-10-05T08:14:28.538Z,75.68
2022-10-05T08:17:00.727Z,74.78
2022-10-05T08:19:40.375Z,74.84
2022-10-05T08:22:18.028Z,72.52
2022-10-05T08:24:57.002Z,73.67
2022-10-05T08:27:28.750Z,72.64
2022-10-05T08:30:04.342Z,72.53
2022-10-05T08:32:38.721Z,71.65
2022-10-05T08:35:15.326Z,72.56
2022-10-05T08:37:46.106Z,71.57
2022-10-05T08:40:46.064Z,72.31
2022-10-05T08:43:37.164Z,71.80
2022-10-05T08:46:38.095Z,72.13
2022-10-05T08:49:57.635Z,71.75
2022-10-05T08:52:29.172Z,71.52
2022-10-05T08:55:29.883Z,70.92
2022-10-05T08:58:33.996Z,71.52
2022-10-05T09:01:11.579Z,71.28
2022-10-05T09:04:21.807Z,70.91
2022-10-05T09:07:27.512Z,70.48
2022-10-05T09:10:32.858Z,69.52
2022-10-05T09:13:26.198Z,68.69
2022-10-05T09:16:24.769Z,67.28
2022-10-05T09:19:15.491Z,66.79
2022-10-05T09:21:51.332Z,66.53
2022-10-05T09:24:39.523Z,66.56
2022-10-05T09:27:13.988Z,67.34
2022-10-05T09:30:19.235Z,66.70
2022-10-05T09:33:13.541Z,65.93
2022-10-05T09:35:58.097Z,66.07
2022-10-05T09:38:38.001Z,66.43
2022-10-05T09:41:40.114Z,66.49
2022-10-05T09:44:47.509Z,67.04
2022-10-05T09:47:51.209Z,66.31
2022-10-05T09:50:55.156Z,66.17
2022-10-05T09:53:44.301Z,65.65
2022-10-05T09:59:36.412Z,65.30
2022-10-05T10:02:17.935Z,64.68
2022-10-05T10:05:06.617Z,65.19
2022-10-05T10:07:53.971Z,63.94
2022-10-05T10:10:48.531Z,64.44
2022-10-05T10:13:42.264Z,63.70
2022-10-05T10:16:18.619Z,63.61
2022-10-05T10:19:06.845Z,63.73
2022-10-05T10:22:00.522Z,65.35
2022-10-05T10:25:01.500Z,64.41
2022-10-05T10:27:57.292Z,63.15
2022-10-05T10:30:52.760Z,62.51
2022-10-05T10:33:46.346Z,61.66
2022-10-05T10:36:21.545Z,60.58
2022-10-05T10:39:00.328Z,58.96
2022-10-05T10:41:59.362Z,58.47
2022-10-05T10:45:01.519Z,59.66
2022-10-05T10:47:40.440Z,59.77
2022-10-05T10:51:05.114Z,59.54
2022-10-05T10:54:11.726Z,58.82
2022-10-05T10:57:03.490Z,58.78
2022-10-05T11:00:02.966Z,58.88
2022-10-05T11:02:54.693Z,57.73
2022-10-05T11:05:46.434Z,57.79
2022-10-05T11:08:56.755Z,57.98
2022-10-05T11:12:10.020Z,57.83
2022-10-05T11:14:54.142Z,57.74
2022-10-05T11:17:56.244Z,58.37
2022-10-05T11:21:08.983Z,58.85
2022-10-05T11:24:15.366Z,57.85
2022-10-05T11:27:02.684Z,57.99
2022-10-05T11:30:03.191Z,57.10
2022-10-05T11:32:58.267Z,57.49
2022-10-05T11:36:10.606Z,57.62
2022-10-05T11:39:01.653Z,57.42
2022-10-05T11:41:53.463Z,57.91
2022-10-05T11:44:48.020Z,57.84
2022-10-05T11:47:23.776Z,57.54
2022-10-05T11:50:06.013Z,57.84
2022-10-05T11:52:44.401Z,58.50
2022-10-05T11:55:27.681Z,58.61
2022-10-05T11:58:01.389Z,58.79
2022-10-05T12:00:39.952Z,59.16
2022-10-05T12:03:25.485Z,59.09
2022-10-05T12:06:08.695Z,59.93
2022-10-05T12:08:47.890Z,60.24
2022-10-05T12:11:33.781Z,60.12
2022-10-05T12:14:08.946Z,60.52
2022-10-05T12:16:47.237Z,60.79
2022-10-05T12:19:29.805Z,60.88
2022-10-05T12:22:03.698Z,60.97
2022-10-05T12:24:54.571Z,60.49
2022-10-05T12:27:27.421Z,60.77
2022-10-05T12:30:06.204Z,60.91
2022-10-05T12:32:41.309Z,61.29
2022-10-05T12:35:30.017Z,61.36
2022-10-05T12:38:16.729Z,61.53
2022-10-05T12:40:51.066Z,61.88
2022-10-05T12:43:31.270Z,61.54
2022-10-05T12:46:09.351Z,61.58
2022-10-05T12:49:22.128Z,61.54
2022-10-05T12:51:56.350Z,61.60
2022-10-05T12:54:38.748Z,62.17
2022-10-05T12:57:19.874Z,61.72
2022-10-05T13:00:02.078Z,61.52
2022-10-05T13:02:40.794Z,61.37
2022-10-05T13:05:23.068Z,61.45
2022-10-05T13:08:17.836Z,61.63
2022-10-05T13:10:52.681Z,61.86
2022-10-05T13:13:35.758Z,61.87
2022-10-05T13:16:17.119Z,61.84
2022-10-05T13:19:02.134Z,62.05
2022-10-05T13:21:40.840Z,62.51
2022-10-05T13:24:21.903Z,62.44
2022-10-05T13:26:58.227Z,63.50
2022-10-05T13:29:33.033Z,63.03
2022-10-05T13:32:12.406Z,63.56
2022-10-05T13:34:48.615Z,62.91
2022-10-05T13:37:29.071Z,63.20
2022-10-05T13:40:15.675Z,63.15
2022-10-05T13:42:52.041Z,63.52
2022-10-05T13:45:24.620Z,63.50
2022-10-05T13:48:16.246Z,63.64
2022-10-05T13:50:50.561Z,63.46
2022-10-05T13:53:28.225Z,63.65
2022-10-05T13:56:00.969Z,63.91
2022-10-05T13:58:39.251Z,64.78
2022-10-05T14:01:15.731Z,65.19
2022-10-05T14:04:05.586Z,64.82
2022-10-05T14:06:37.119Z,65.48
2022-10-05T14:09:13.532Z,65.77
2022-10-05T14:12:05.762Z,65.91
2022-10-05T14:14:45.099Z,65.74
2022-10-05T14:17:17.565Z,65.99
2022-10-05T14:19:54.077Z,66.30
2022-10-05T14:22:24.472Z,66.97
2022-10-05T14:25:02.979Z,67.18
2022-10-05T14:27:35.983Z,67.16
2022-10-05T14:30:22.995Z,67.60
2022-10-05T14:32:55.866Z,67.73
2022-10-05T14:35:28.409Z,67.72
2022-10-05T14:38:00.952Z,67.74
2022-10-05T14:40:32.448Z,68.14
2022-10-05T14:43:19.908Z,68.16
2022-10-05T14:46:00.583Z,68.28
2022-10-05T14:48:43.611Z,68.58
2022-10-05T14:51:24.367Z,68.69
2022-10-05T14:54:02.519Z,68.93
2022-10-05T14:56:49.617Z,69.53
2022-10-05T14:59:39.530Z,69.67
2022-10-05T15:02:28.355Z,69.67
2022-10-05T15:05:07.400Z,70.16
2022-10-05T15:07:40.887Z,69.95
2022-10-05T15:10:29.442Z,69.84
2022-10-05T15:13:10.701Z,70.32
2022-10-05T15:15:49.426Z,70.28
2022-10-05T15:18:39.721Z,70.51
2022-10-05T15:21:31.447Z,70.64
2022-10-05T15:24:05.377Z,70.75
2022-10-05T15:26:42.644Z,70.81
2022-10-05T15:29:25.491Z,71.01
2022-10-05T15:32:02.651Z,70.98
2022-10-05T15:34:37.310Z,71.32
2022-10-05T15:37:16.487Z,71.40
2022-10-05T15:39:52.744Z,71.75
2022-10-05T15:42:29.851Z,72.28
2022-10-05T15:45:06.542Z,72.06
2022-10-05T15:47:46.493Z,72.31
2022-10-05T15:50:22.884Z,72.65
2022-10-05T15:52:56.488Z,72.95
2022-10-05T15:55:35.943Z,73.22
2022-10-05T15:58:38.361Z,73.53
2022-10-05T16:01:12.124Z,73.84
2022-10-05T16:03:45.773Z,73.85
2022-10-05T16:06:49.281Z,74.03
2022-10-05T16:09:35.622Z,74.49
2022-10-05T16:12:25.867Z,74.64
2022-10-05T16:15:15.760Z,74.98
2022-10-05T16:18:02.162Z,75.19
2022-10-05T16:20:41.340Z,75.63
2022-10-05T16:23:17.146Z,75.59
2022-10-05T16:26:00.830Z,75.66
2022-10-05T16:28:39.292Z,75.90
2022-10-05T16:31:18.119Z,76.22
2022-10-05T16:34:00.603Z,75.95
2022-10-05T16:36:43.975Z,76.14
2022-10-05T16:39:22.095Z,76.21
2022-10-05T16:41:59.947Z,76.30
2022-10-05T16:44:41.772Z,76.50
2022-10-05T16:47:36.295Z,76.68
2022-10-05T16:50:38.814Z,76.70
2022-10-05T16:53:17.655Z,76.97
2022-10-05T16:55:49.591Z,76.88
2022-10-05T16:58:25.274Z,77.12
2022-10-05T17:01:10.858Z,76.85
2022-10-05T17:03:53.394Z,76.92
2022-10-05T17:06:53.524Z,77.16
2022-10-05T17:09:49.256Z,77.08
2022-10-05T17:12:31.858Z,77.06
2022-10-05T17:15:14.067Z,77.21
2022-10-05T17:18:01.805Z,77.24
2022-10-05T17:20:44.042Z,77.06
2022-10-05T17:23:29.778Z,77.00
2022-10-05T17:26:10.305Z,77.29
2022-10-05T17:28:41.646Z,77.27
2022-10-05T17:31:16.994Z,77.43
2022-10-05T17:34:26.663Z,77.35
2022-10-05T17:37:15.886Z,77.28
2022-10-05T17:39:50.872Z,77.58
2022-10-05T17:42:48.671Z,77.74
2022-10-05T17:46:05.295Z,77.77
2022-10-05T17:48:53.689Z,77.87
2022-10-05T17:52:19.239Z,77.79
2022-10-05T17:55:27.822Z,77.68
2022-10-05T17:57:59.251Z,77.70
2022-10-05T18:00:40.157Z,77.79
2022-10-05T18:03:35.710Z,77.85
2022-10-05T18:06:36.847Z,77.82
2022-10-05T18:09:49.462Z,77.78
2022-10-05T18:12:44.899Z,77.71
2022-10-05T18:15:48.853Z,77.75
2022-10-05T18:18:57.076Z,77.57
2022-10-05T18:21:37.261Z,77.62
2022-10-05T18:24:44.727Z,77.51
2022-10-05T18:27:31.610Z,77.55
2022-10-05T18:30:15.004Z,77.60
2022-10-05T18:33:33.294Z,77.33
2022-10-05T18:36:11.984Z,77.40
2022-10-05T18:38:52.815Z,77.41
2022-10-05T18:41:34.313Z,77.41
2022-10-05T18:44:19.082Z,77.47
2022-10-05T18:46:58.421Z,77.51
2022-10-05T18:49:42.695Z,77.32
2022-10-05T18:52:19.056Z,77.33
2022-10-05T18:54:57.269Z,77.27
2022-10-05T18:57:50.322Z,77.40
2022-10-05T19:00:22.886Z,77.36
2022-10-05T19:03:00.468Z,77.11
2022-10-05T19:05:47.974Z,77.33
2022-10-05T19:18:28.357Z,77.01
2022-10-05T19:21:10.642Z,76.85
2022-10-05T19:23:56.002Z,76.81
2022-10-05T19:26:49.397Z,76.74
2022-10-05T19:29:35.779Z,76.88
2022-10-05T19:32:18.121Z,76.73
2022-10-05T19:35:02.688Z,76.69
2022-10-05T19:37:40.226Z,76.64
2022-10-05T19:40:33.929Z,76.55
2022-10-05T19:43:23.827Z,76.59
2022-10-05T19:46:11.094Z,76.51
2022-10-05T19:48:44.033Z,76.55
2022-10-05T19:51:17.484Z,76.53
2022-10-05T19:53:49.486Z,76.53
2022-10-05T19:56:20.593Z,76.57
2022-10-05T19:58:51.353Z,76.63
2022-10-05T20:01:30.084Z,76.64
2022-10-05T20:04:10.058Z,76.60
2022-10-05T20:06:41.788Z,76.71
2022-10-05T20:09:21.307Z,76.70
2022-10-05T20:12:03.649Z,76.95
2022-10-05T20:14:59.163Z,76.76
2022-10-05T20:17:49.435Z,76.95
2022-10-05T20:20:38.756Z,77.15
2022-10-05T20:23:25.918Z,77.15
2022-10-05T20:26:14.422Z,77.36
2022-10-05T20:28:43.931Z,77.44
2022-10-05T20:31:13.945Z,77.47
2022-10-05T20:33:42.595Z,77.65
2022-10-05T20:36:10.975Z,77.82
2022-10-05T20:38:41.298Z,77.82
2022-10-05T20:41:09.802Z,77.84
2022-10-05T20:43:39.554Z,77.89
2022-10-05T20:46:08.026Z,78.03
2022-10-05T20:48:46.075Z,78.20
2022-10-05T20:51:17.402Z,78.28
2022-10-05T20:53:48.664Z,78.32
2022-10-05T20:56:19.304Z,78.51
2022-10-05T20:58:47.818Z,78.66
2022-10-05T21:01:17.803Z,78.66
2022-10-05T21:03:46.980Z,78.71
2022-10-05T21:06:17.441Z,78.79
2022-10-05T21:08:46.210Z,78.89
2022-10-05T21:11:14.886Z,79.04
2022-10-05T21:13:44.668Z,79.12
2022-10-05T21:16:16.148Z,79.08
2022-10-05T21:18:46.710Z,79.13
2022-10-05T21:21:16.701Z,79.09
2022-10-05T21:23:45.137Z,79.09
2022-10-05T21:26:15.061Z,79.14
2022-10-05T21:28:43.661Z,79.21
2022-10-05T21:31:12.280Z,79.27
2022-10-05T21:33:40.697Z,79.27
2022-10-05T21:36:09.493Z,79.25
2022-10-05T21:38:38.540Z,79.40
2022-10-05T21:41:07.551Z,79.39
2022-10-05T21:43:39.092Z,79.48
2022-10-05T21:46:08.382Z,79.61
2022-10-05T21:48:39.073Z,79.58
2022-10-05T21:51:10.061Z,79.61
2022-10-05T21:53:42.329Z,79.60
2022-10-05T21:56:16.359Z,79.63
2022-10-05T21:58:46.784Z,79.81
2022-10-05T22:01:20.158Z,79.93
2022-10-05T22:03:51.225Z,80.19
2022-10-05T22:06:26.267Z,80.25
2022-10-05T22:08:54.983Z,80.46
2022-10-05T22:11:25.408Z,80.38
2022-10-05T22:14:01.809Z,80.60
2022-10-05T22:16:32.797Z,80.74
2022-10-05T22:19:10.706Z,80.90
2022-10-05T22:21:41.090Z,80.93
2022-10-05T22:24:10.929Z,81.33
2022-10-05T22:26:40.045Z,81.44
2022-10-05T22:29:09.391Z,81.44
2022-10-05T22:31:38.726Z,81.48
2022-10-05T22:34:07.215Z,81.64
2022-10-05T22:36:36.889Z,81.62
2022-10-05T22:39:05.277Z,81.56
2022-10-05T22:41:34.006Z,81.73
2022-10-05T22:44:03.758Z,81.89
2022-10-05T22:46:32.184Z,81.77
2022-10-05T22:49:06.100Z,81.94
2022-10-05T22:51:34.671Z,81.82
2022-10-05T22:54:04.358Z,81.94
2022-10-05T22:56:32.762Z,81.86
2022-10-05T22:59:02.844Z,81.92
2022-10-05T23:01:31.336Z,82.00
2022-10-05T23:04:00.264Z,82.08
2022-10-05T23:06:30.181Z,82.12
2022-10-05T23:08:58.638Z,82.22
2022-10-05T23:11:28.223Z,82.43
2022-10-05T23:13:58.182Z,82.50
2022-10-05T23:16:32.839Z,82.49
2022-10-05T23:19:02.989Z,82.50
2022-10-05T23:21:31.529Z,82.61
2022-10-05T23:23:59.966Z,82.63
2022-10-05T23:26:28.467Z,82.76
2022-10-05T23:28:57.331Z,82.70
2022-10-05T23:31:29.340Z,82.80
2022-10-05T23:33:57.985Z,82.87
2022-10-05T23:36:31.827Z,83.06
2022-10-05T23:39:00.337Z,83.20
2022-10-05T23:41:29.006Z,83.17
2022-10-05T23:43:57.483Z,83.16
2022-10-05T23:46:26.016Z,83.23
2022-10-05T23:48:54.449Z,83.25
2022-10-05T23:51:23.043Z,83.51
2022-10-05T23:53:51.473Z,83.55
2022-10-05T23:56:19.944Z,83.60
2022-10-05T23:58:48.662Z,83.55
